createdAt,value
2018-09-09T00:00:09.771Z,4.80
2018-09-09T00:02:38.214Z,4.63
2018-09-09T00:05:06.635Z,4.87
2018-09-09T00:07:34.991Z,4.67
2018-09-09T00:10:03.549Z,5.00
2018-09-09T00:12:31.891Z,5.07
2018-09-09T00:15:00.303Z,5.00
2018-09-09T00:17:28.719Z,4.87
2018-09-09T00:19:57.103Z,4.60
2018-09-09T00:22:25.471Z,4.80
2018-09-09T00:24:53.903Z,4.43
2018-09-09T00:27:22.296Z,5.20
2018-09-09T00:29:50.665Z,4.93
2018-09-09T00:32:19.165Z,5.00
2018-09-09T00:34:47.514Z,4.63
2018-09-09T00:37:15.886Z,4.50
2018-09-09T00:39:44.281Z,4.20
2018-09-09T00:42:12.604Z,3.80
2018-09-09T00:44:41.037Z,4.43
2018-09-09T00:47:09.355Z,4.37
2018-09-09T00:49:42.825Z,3.93
2018-09-09T00:52:16.548Z,3.67
2018-09-09T00:54:44.960Z,3.90
2018-09-09T00:57:13.295Z,3.33
2018-09-09T00:59:41.743Z,3.43
2018-09-09T01:02:10.120Z,3.73
2018-09-09T01:04:38.450Z,3.70
2018-09-09T01:07:06.797Z,3.93
2018-09-09T01:09:35.192Z,4.20
2018-09-09T01:12:04.676Z,3.80
2018-09-09T01:14:33.834Z,4.27
2018-09-09T01:17:02.178Z,5.03
2018-09-09T01:19:30.674Z,4.83
2018-09-09T01:21:59.213Z,3.70
2018-09-09T01:24:27.535Z,3.60
2018-09-09T01:26:55.932Z,3.33
2018-09-09T01:29:24.355Z,3.50
2018-09-09T01:31:52.649Z,4.50
2018-09-09T01:34:21.026Z,4.27
2018-09-09T01:36:49.632Z,3.90
2018-09-09T01:39:17.992Z,3.83
2018-09-09T01:41:46.355Z,3.50
2018-09-09T01:44:14.775Z,3.73
2018-09-09T01:46:43.075Z,3.80
2018-09-09T01:49:11.582Z,4.20
2018-09-09T01:51:39.910Z,4.03
2018-09-09T01:54:08.209Z,3.80
2018-09-09T01:56:36.582Z,4.23
2018-09-09T01:59:04.959Z,3.93
2018-09-09T02:01:33.324Z,3.93
2018-09-09T02:04:01.768Z,4.00
2018-09-09T02:06:30.088Z,4.00
2018-09-09T02:08:58.442Z,4.07
2018-09-09T02:11:26.755Z,4.00
2018-09-09T02:13:55.140Z,3.90
2018-09-09T02:16:23.700Z,3.87
2018-09-09T02:18:52.071Z,4.17
2018-09-09T02:21:20.402Z,3.70
2018-09-09T02:23:48.771Z,3.70
2018-09-09T02:26:17.126Z,3.60
2018-09-09T02:28:45.478Z,3.97
2018-09-09T02:31:13.842Z,3.80
2018-09-09T02:33:42.411Z,3.67
2018-09-09T02:36:10.836Z,3.83
2018-09-09T02:38:39.211Z,4.10
2018-09-09T02:41:07.649Z,4.10
2018-09-09T02:43:36.139Z,4.17
2018-09-09T02:46:04.699Z,4.10
2018-09-09T02:48:33.108Z,4.23
2018-09-09T02:51:01.629Z,3.77
2018-09-09T02:53:30.001Z,4.33
2018-09-09T02:55:58.364Z,4.23
2018-09-09T02:58:26.717Z,3.87
2018-09-09T03:00:55.061Z,4.23
2018-09-09T03:03:23.440Z,3.80
2018-09-09T03:05:51.858Z,3.90
2018-09-09T03:08:20.202Z,4.00
2018-09-09T03:10:52.766Z,3.80
2018-09-09T03:13:21.138Z,3.73
2018-09-09T03:15:49.546Z,3.83
2018-09-09T03:18:17.902Z,3.97
2018-09-09T03:20:46.313Z,4.37
2018-09-09T03:23:14.664Z,4.07
2018-09-09T03:25:43.052Z,4.43
2018-09-09T03:28:11.404Z,4.27
2018-09-09T03:30:39.804Z,4.00
2018-09-09T03:33:08.190Z,4.70
2018-09-09T03:35:36.718Z,4.63
2018-09-09T03:38:05.026Z,4.00
2018-09-09T03:40:33.622Z,3.97
2018-09-09T03:43:01.920Z,4.10
2018-09-09T03:45:30.239Z,4.50
2018-09-09T03:47:58.719Z,4.30
2018-09-09T03:50:27.027Z,4.10
2018-09-09T03:52:55.373Z,4.20
2018-09-09T03:55:23.655Z,4.03
2018-09-09T03:57:52.008Z,4.10
2018-09-09T04:00:20.311Z,3.80
2018-09-09T04:02:48.744Z,4.10
2018-09-09T04:05:17.166Z,4.17
2018-09-09T04:07:45.482Z,4.10
2018-09-09T04:10:14.209Z,4.27
2018-09-09T04:12:42.575Z,4.90
2018-09-09T04:15:10.857Z,4.30
2018-09-09T04:17:39.172Z,3.60
2018-09-09T04:20:08.068Z,3.30
2018-09-09T04:22:36.395Z,3.53
2018-09-09T04:25:04.701Z,3.50
2018-09-09T04:27:33.054Z,3.30
2018-09-09T04:30:01.363Z,3.40
2018-09-09T04:32:29.722Z,3.50
2018-09-09T04:34:58.057Z,3.57
2018-09-09T04:37:26.402Z,3.57
2018-09-09T04:39:54.802Z,3.47
2018-09-09T04:42:23.249Z,3.87
2018-09-09T04:44:51.536Z,3.90
2018-09-09T04:47:19.914Z,4.53
2018-09-09T04:49:48.403Z,3.87
2018-09-09T04:52:16.832Z,3.80
2018-09-09T04:54:45.120Z,4.13
2018-09-09T04:57:13.586Z,3.80
2018-09-09T04:59:41.887Z,4.10
2018-09-09T05:02:10.505Z,3.67
2018-09-09T05:04:38.866Z,3.50
2018-09-09T05:07:07.158Z,3.80
2018-09-09T05:09:35.660Z,3.83
2018-09-09T05:12:04.122Z,3.67
2018-09-09T05:14:32.720Z,4.00
2018-09-09T05:17:01.103Z,4.30
2018-09-09T05:19:29.385Z,3.63
2018-09-09T05:21:57.766Z,3.90
2018-09-09T05:24:26.365Z,3.97
2018-09-09T05:26:54.876Z,3.87
2018-09-09T05:29:27.897Z,3.57
2018-09-09T05:31:56.467Z,3.43
2018-09-09T05:35:27.047Z,3.70
2018-09-09T05:37:55.680Z,3.90
2018-09-09T05:40:24.146Z,3.30
2018-09-09T05:42:53.383Z,3.57
2018-09-09T05:45:36.540Z,3.40
2018-09-09T05:48:04.992Z,3.50
2018-09-09T05:50:34.446Z,3.23
2018-09-09T05:53:04.259Z,3.17
2018-09-09T05:55:33.277Z,2.77
2018-09-09T05:58:02.036Z,2.67
2018-09-09T06:00:30.410Z,3.80
2018-09-09T06:02:58.822Z,2.80
2018-09-09T06:05:27.150Z,3.30
2018-09-09T06:07:56.019Z,3.00
2018-09-09T06:10:24.390Z,2.50
2018-09-09T06:12:52.760Z,2.60
2018-09-09T06:15:21.280Z,2.90
2018-09-09T06:17:49.679Z,2.63
2018-09-09T06:20:18.700Z,2.67
2018-09-09T06:22:54.750Z,2.50
2018-09-09T06:25:40.982Z,2.50
2018-09-09T06:28:10.072Z,2.93
2018-09-09T06:30:38.594Z,2.67
2018-09-09T06:33:07.154Z,2.40
2018-09-09T06:35:35.446Z,2.33
2018-09-09T06:38:03.787Z,2.40
2018-09-09T06:40:32.254Z,2.67
2018-09-09T06:43:00.601Z,2.50
2018-09-09T06:45:29.183Z,1.97
2018-09-09T06:47:58.703Z,2.23
2018-09-09T06:50:33.442Z,2.03
2018-09-09T06:53:06.359Z,2.20
2018-09-09T06:55:47.168Z,2.47
2018-09-09T06:58:34.248Z,2.70
2018-09-09T07:01:13.360Z,2.03
2018-09-09T07:03:55.422Z,2.30
2018-09-09T07:06:30.352Z,2.30
2018-09-09T07:09:07.287Z,2.73
2018-09-09T07:11:44.200Z,2.07
2018-09-09T07:14:20.311Z,2.30
2018-09-09T07:16:57.504Z,2.40
2018-09-09T07:19:33.210Z,2.50
2018-09-09T07:22:09.714Z,2.70
2018-09-09T07:24:38.457Z,2.70
2018-09-09T07:27:06.845Z,3.27
2018-09-09T07:29:35.215Z,2.60
2018-09-09T07:32:03.538Z,2.33
2018-09-09T07:34:31.864Z,2.57
2018-09-09T07:37:00.352Z,2.47
2018-09-09T07:39:28.777Z,2.20
2018-09-09T07:41:57.096Z,2.40
2018-09-09T07:44:25.526Z,2.70
2018-09-09T07:46:53.917Z,2.33
2018-09-09T07:49:22.322Z,2.30
2018-09-09T07:51:51.064Z,2.30
2018-09-09T07:54:20.366Z,2.20
2018-09-09T07:56:48.662Z,2.27
2018-09-09T07:59:17.566Z,2.33
2018-09-09T08:01:45.959Z,2.00
2018-09-09T08:04:14.448Z,2.60
2018-09-09T08:06:42.723Z,2.30
2018-09-09T08:09:11.703Z,2.10
2018-09-09T08:11:40.379Z,2.37
2018-09-09T08:14:10.107Z,2.30
2018-09-09T08:16:38.529Z,2.40
2018-09-09T08:19:07.036Z,2.10
2018-09-09T08:21:35.617Z,2.33
2018-09-09T08:24:03.994Z,2.23
2018-09-09T08:26:32.314Z,2.35
2018-09-09T08:29:00.603Z,2.55
2018-09-09T08:31:28.975Z,2.40
2018-09-09T08:33:57.329Z,2.22
2018-09-09T08:36:25.663Z,2.37
2018-09-09T08:38:54.177Z,2.37
2018-09-09T08:41:22.473Z,2.37
2018-09-09T08:43:50.791Z,2.40
2018-09-09T08:46:19.084Z,2.42
2018-09-09T08:48:47.571Z,2.35
2018-09-09T08:51:15.924Z,2.50
2018-09-09T08:53:45.439Z,2.10
2018-09-09T08:56:14.063Z,2.30
2018-09-09T08:58:42.449Z,2.47
2018-09-09T09:01:10.910Z,2.35
2018-09-09T09:03:39.310Z,2.75
2018-09-09T09:06:07.639Z,2.50
2018-09-09T09:08:35.987Z,2.50
2018-09-09T09:11:04.485Z,2.20
2018-09-09T09:13:32.946Z,2.30
2018-09-09T09:16:01.479Z,2.47
2018-09-09T09:18:29.986Z,2.40
2018-09-09T09:20:58.442Z,2.35
2018-09-09T09:23:26.818Z,2.00
2018-09-09T09:25:55.432Z,2.30
2018-09-09T09:28:24.474Z,2.30
2018-09-09T09:30:53.607Z,2.30
2018-09-09T09:33:22.016Z,2.25
2018-09-09T09:35:51.705Z,2.52
2018-09-09T09:38:21.459Z,2.50
2018-09-09T09:40:50.289Z,2.62
2018-09-09T09:43:18.562Z,2.45
2018-09-09T09:45:46.976Z,2.10
2018-09-09T09:48:15.390Z,2.12
2018-09-09T09:50:43.851Z,2.10
2018-09-09T09:53:12.223Z,2.22
2018-09-09T09:55:40.615Z,2.17
2018-09-09T09:58:08.965Z,2.20
2018-09-09T10:00:42.590Z,2.60
2018-09-09T10:03:10.908Z,2.42
2018-09-09T10:05:39.518Z,2.08
2018-09-09T10:08:07.903Z,2.87
2018-09-09T10:10:36.210Z,2.30
2018-09-09T10:13:04.570Z,2.10
2018-09-09T10:15:33.190Z,2.27
2018-09-09T10:18:01.708Z,2.30
2018-09-09T10:20:30.222Z,2.20
2018-09-09T10:22:58.514Z,1.92
2018-09-09T10:25:26.818Z,2.25
2018-09-09T10:27:56.230Z,1.80
2018-09-09T10:30:24.535Z,1.77
2018-09-09T10:32:52.835Z,1.80
2018-09-09T10:35:21.723Z,1.87
2018-09-09T10:37:49.999Z,1.92
2018-09-09T10:40:18.520Z,2.05
2018-09-09T10:42:47.491Z,1.62
2018-09-09T10:45:15.950Z,2.10
2018-09-09T10:47:44.248Z,1.90
2018-09-09T10:50:12.653Z,2.05
2018-09-09T10:52:40.998Z,1.92
2018-09-09T10:55:09.328Z,2.52
2018-09-09T10:57:37.665Z,2.27
2018-09-09T11:00:06.386Z,1.80
2018-09-09T11:02:34.754Z,1.80
2018-09-09T11:05:03.145Z,2.22
2018-09-09T11:07:32.462Z,1.80
2018-09-09T11:10:00.787Z,2.00
2018-09-09T11:12:30.030Z,2.02
2018-09-09T11:14:59.776Z,1.75
2018-09-09T11:17:28.770Z,1.98
2018-09-09T11:19:58.053Z,1.95
2018-09-09T11:22:27.031Z,1.95
2018-09-09T11:24:55.294Z,1.90
2018-09-09T11:27:24.297Z,1.90
2018-09-09T11:29:52.602Z,1.90
2018-09-09T11:32:20.881Z,1.90
2018-09-09T11:34:49.158Z,1.80
2018-09-09T11:37:17.519Z,1.70
2018-09-09T11:39:46.010Z,2.25
2018-09-09T11:42:14.351Z,2.12
2018-09-09T11:44:42.872Z,2.45
2018-09-09T11:47:11.159Z,2.10
2018-09-09T11:49:39.446Z,1.90
2018-09-09T11:52:07.834Z,2.17
2018-09-09T11:54:36.718Z,1.95
2018-09-09T11:57:05.938Z,2.15
2018-09-09T11:59:34.969Z,2.17
2018-09-09T12:02:04.114Z,1.82
2018-09-09T12:04:33.469Z,2.15
2018-09-09T12:07:03.027Z,1.80
2018-09-09T12:09:31.522Z,2.00
2018-09-09T12:11:59.833Z,1.85
2018-09-09T12:14:28.193Z,1.80
2018-09-09T12:16:56.565Z,2.02
2018-09-09T12:19:24.875Z,1.98
2018-09-09T12:21:53.309Z,1.90
2018-09-09T12:24:21.677Z,1.65
2018-09-09T12:26:50.019Z,2.10
2018-09-09T12:29:18.361Z,1.90
2018-09-09T12:31:46.723Z,1.60
2018-09-09T12:34:15.103Z,2.00
2018-09-09T12:36:43.847Z,1.80
2018-09-09T12:39:12.208Z,1.65
2018-09-09T12:41:40.547Z,1.92
2018-09-09T12:44:14.514Z,1.75
2018-09-09T12:46:48.259Z,1.85
2018-09-09T12:49:16.644Z,1.60
2018-09-09T12:51:44.971Z,1.67
2018-09-09T12:54:13.290Z,1.60
2018-09-09T12:56:42.241Z,1.70
2018-09-09T12:59:10.825Z,1.95
2018-09-09T13:01:39.750Z,1.90
2018-09-09T13:04:08.337Z,2.05
2018-09-09T13:06:36.709Z,1.92
2018-09-09T13:09:07.524Z,1.60
2018-09-09T13:11:36.079Z,1.70
2018-09-09T13:14:04.593Z,1.70
2018-09-09T13:16:34.107Z,1.80
2018-09-09T13:19:02.785Z,1.90
2018-09-09T13:21:31.077Z,1.70
2018-09-09T13:23:59.532Z,1.80
2018-09-09T13:26:27.846Z,1.90
2018-09-09T13:28:56.267Z,1.77
2018-09-09T13:31:25.010Z,1.60
2018-09-09T13:33:53.470Z,1.70
2018-09-09T13:36:22.035Z,1.67
2018-09-09T13:38:50.753Z,2.00
2018-09-09T13:41:19.464Z,2.00
2018-09-09T13:43:48.004Z,1.87
2018-09-09T13:46:16.359Z,1.80
2018-09-09T13:48:44.750Z,1.90
2018-09-09T13:51:13.145Z,2.05
2018-09-09T13:53:41.478Z,1.80
2018-09-09T13:56:09.861Z,2.00
2018-09-09T13:58:38.670Z,1.77
2018-09-09T14:01:07.290Z,1.90
2018-09-09T14:03:35.606Z,2.12
2018-09-09T14:06:03.914Z,1.90
2018-09-09T14:08:32.295Z,1.95
2018-09-09T14:11:00.599Z,2.05
2018-09-09T14:13:29.055Z,1.85
2018-09-09T14:15:57.648Z,1.90
2018-09-09T14:18:26.011Z,2.02
2018-09-09T14:21:00.687Z,2.08
2018-09-09T14:23:28.986Z,2.10
2018-09-09T14:25:57.300Z,2.02
2018-09-09T14:28:25.726Z,1.85
2018-09-09T14:30:54.269Z,2.08
2018-09-09T14:33:22.615Z,1.70
2018-09-09T14:35:52.043Z,2.00
2018-09-09T14:38:20.435Z,2.30
2018-09-09T14:40:48.929Z,1.92
2018-09-09T14:43:17.313Z,2.60
2018-09-09T14:45:45.675Z,3.12
2018-09-09T14:48:14.093Z,2.70
2018-09-09T14:50:42.547Z,2.72
2018-09-09T14:53:11.015Z,2.50
2018-09-09T14:55:39.331Z,2.30
2018-09-09T14:58:07.871Z,1.95
2018-09-09T15:00:36.292Z,2.33
2018-09-09T15:03:04.739Z,2.00
2018-09-09T15:05:33.067Z,1.98
2018-09-09T15:08:01.435Z,2.02
2018-09-09T15:10:29.803Z,1.87
2018-09-09T15:12:58.584Z,2.00
2018-09-09T15:15:26.914Z,2.15
2018-09-09T15:17:55.282Z,2.10
2018-09-09T15:20:23.614Z,1.85
2018-09-09T15:22:52.079Z,2.10
2018-09-09T15:25:20.487Z,1.85
2018-09-09T15:27:49.464Z,1.90
2018-09-09T15:30:18.621Z,1.95
2018-09-09T15:32:47.019Z,1.90
2018-09-09T15:35:15.405Z,1.90
2018-09-09T15:37:43.839Z,1.90
2018-09-09T15:40:12.402Z,2.00
2018-09-09T15:42:40.824Z,2.00
2018-09-09T15:45:09.132Z,1.92
2018-09-09T15:47:37.592Z,1.90
2018-09-09T15:50:06.324Z,1.90
2018-09-09T15:52:34.679Z,2.05
2018-09-09T15:55:03.439Z,1.90
2018-09-09T15:57:32.113Z,1.92
2018-09-09T16:00:00.625Z,2.00
2018-09-09T16:02:29.281Z,2.10
2018-09-09T16:04:57.687Z,1.90
2018-09-09T16:07:26.155Z,2.10
2018-09-09T16:09:54.546Z,1.90
2018-09-09T16:12:23.079Z,2.00
2018-09-09T16:14:51.678Z,2.12
2018-09-09T16:17:20.144Z,2.30
2018-09-09T16:19:48.781Z,2.00
2018-09-09T16:22:17.217Z,2.00
2018-09-09T16:24:45.854Z,1.90
2018-09-09T16:27:14.326Z,2.00
2018-09-09T16:29:42.671Z,1.87
2018-09-09T16:32:11.234Z,2.10
2018-09-09T16:34:39.747Z,1.80
2018-09-09T16:37:08.242Z,2.22
2018-09-09T16:39:36.637Z,1.80
2018-09-09T16:42:05.049Z,1.72
2018-09-09T16:44:34.197Z,1.92
2018-09-09T16:47:02.626Z,2.20
2018-09-09T16:49:31.399Z,1.92
2018-09-09T16:51:59.713Z,2.08
2018-09-09T16:54:28.131Z,2.00
2018-09-09T16:56:56.498Z,2.00
2018-09-09T16:59:24.854Z,2.12
2018-09-09T17:01:53.282Z,1.82
2018-09-09T17:04:21.656Z,1.90
2018-09-09T17:06:50.061Z,2.12
2018-09-09T17:09:18.551Z,1.90
2018-09-09T17:11:46.867Z,2.10
2018-09-09T17:14:16.036Z,2.20
2018-09-09T17:16:44.895Z,2.10
2018-09-09T17:19:13.573Z,2.00
2018-09-09T17:21:43.115Z,2.15
2018-09-09T17:24:11.549Z,2.00
2018-09-09T17:26:39.854Z,2.25
2018-09-09T17:29:08.284Z,2.33
2018-09-09T17:31:36.658Z,2.30
2018-09-09T17:34:05.253Z,2.15
2018-09-09T17:36:33.783Z,1.80
2018-09-09T17:39:02.167Z,2.08
2018-09-09T17:41:30.534Z,2.40
2018-09-09T17:43:59.008Z,2.05
2018-09-09T17:46:27.454Z,2.10
2018-09-09T17:48:55.937Z,2.00
2018-09-09T17:51:25.276Z,1.90
2018-09-09T17:53:54.529Z,2.47
2018-09-09T17:56:23.888Z,2.15
2018-09-09T17:58:52.573Z,2.40
2018-09-09T18:01:20.991Z,2.50
2018-09-09T18:03:49.438Z,2.15
2018-09-09T18:06:17.882Z,2.10
2018-09-09T18:08:46.730Z,2.07
2018-09-09T18:11:15.181Z,2.40
2018-09-09T18:13:43.790Z,2.17
2018-09-09T18:16:12.160Z,2.17
2018-09-09T18:18:40.504Z,2.10
2018-09-09T18:21:09.093Z,2.23
2018-09-09T18:23:37.644Z,2.60
2018-09-09T18:26:06.451Z,3.17
2018-09-09T18:28:34.898Z,2.60
2018-09-09T18:31:04.078Z,2.30
2018-09-09T18:33:32.910Z,2.20
2018-09-09T18:36:01.359Z,2.30
2018-09-09T18:38:30.295Z,2.30
2018-09-09T18:40:58.643Z,2.33
2018-09-09T18:43:27.275Z,2.30
2018-09-09T18:45:55.699Z,2.47
2018-09-09T18:48:25.258Z,2.33
2018-09-09T18:50:53.664Z,2.60
2018-09-09T18:53:22.546Z,2.40
2018-09-09T18:56:53.671Z,2.30
2018-09-09T18:59:22.575Z,2.73
2018-09-09T19:01:51.063Z,2.77
2018-09-09T19:04:19.560Z,2.70
2018-09-09T19:06:47.918Z,2.33
2018-09-09T19:09:16.313Z,2.60
2018-09-09T19:11:44.700Z,2.50
2018-09-09T19:14:13.095Z,2.13
2018-09-09T19:16:41.798Z,2.30
2018-09-09T19:19:10.434Z,2.43
2018-09-09T19:21:38.766Z,2.63
2018-09-09T19:24:06.800Z,2.70
2018-09-09T19:26:35.225Z,2.50
2018-09-09T19:29:04.311Z,2.60
2018-09-09T19:31:32.755Z,2.37
2018-09-09T19:34:01.426Z,2.53
2018-09-09T19:36:29.904Z,2.60
2018-09-09T19:38:58.276Z,2.50
2018-09-09T19:41:27.389Z,2.60
2018-09-09T19:43:55.922Z,2.70
2018-09-09T19:46:24.259Z,2.67
2018-09-09T19:48:53.013Z,2.73
2018-09-09T19:51:21.527Z,2.70
2018-09-09T19:53:52.752Z,2.67
2018-09-09T19:56:21.171Z,2.50
2018-09-09T19:58:50.421Z,2.70
2018-09-09T20:01:18.908Z,2.60
2018-09-09T20:03:47.502Z,2.57
2018-09-09T20:06:15.935Z,2.60
2018-09-09T20:08:44.700Z,2.53
2018-09-09T20:11:13.459Z,2.90
2018-09-09T20:13:41.902Z,2.33
2018-09-09T20:16:10.618Z,2.40
2018-09-09T20:18:39.496Z,2.60
2018-09-09T20:21:08.693Z,2.40
2018-09-09T20:23:37.155Z,2.80
2018-09-09T20:26:05.943Z,2.57
2018-09-09T20:28:40.878Z,2.70
2018-09-09T20:31:09.456Z,2.67
2018-09-09T20:33:37.927Z,2.70
2018-09-09T20:36:06.688Z,2.60
2018-09-09T20:38:35.374Z,2.50
2018-09-09T20:41:04.174Z,2.77
2018-09-09T20:43:32.817Z,2.70
2018-09-09T20:46:01.317Z,2.83
2018-09-09T20:48:30.495Z,2.93
2018-09-09T20:50:59.171Z,2.83
2018-09-09T20:53:27.545Z,3.03
2018-09-09T20:56:02.303Z,2.70
2018-09-09T20:58:30.688Z,2.83
2018-09-09T21:00:59.124Z,2.87
2018-09-09T21:03:27.504Z,2.63
2018-09-09T21:05:58.872Z,2.80
2018-09-09T21:08:27.229Z,2.60
2018-09-09T21:10:55.652Z,2.77
2018-09-09T21:13:24.043Z,2.40
2018-09-09T21:15:52.438Z,2.67
2018-09-09T21:18:20.988Z,2.50
2018-09-09T21:20:49.379Z,3.07
2018-09-09T21:23:17.970Z,2.97
2018-09-09T21:25:46.299Z,3.03
2018-09-09T21:28:14.666Z,3.20
2018-09-09T21:30:55.926Z,2.93
2018-09-09T21:33:24.292Z,3.00
2018-09-09T21:35:52.941Z,3.27
2018-09-09T21:38:21.302Z,2.77
2018-09-09T21:40:49.794Z,3.23
2018-09-09T21:43:18.242Z,3.00
2018-09-09T21:45:49.410Z,3.40
2018-09-09T21:48:17.790Z,3.20
2018-09-09T21:50:46.920Z,3.50
2018-09-09T21:53:15.364Z,3.47
2018-09-09T21:55:43.814Z,3.20
2018-09-09T21:58:12.148Z,3.37
2018-09-09T22:00:45.927Z,3.40
2018-09-09T22:03:14.453Z,3.80
2018-09-09T22:05:42.855Z,3.23
2018-09-09T22:08:11.244Z,3.70
2018-09-09T22:10:39.611Z,3.57
2018-09-09T22:13:08.064Z,4.47
2018-09-09T22:15:36.408Z,3.23
2018-09-09T22:18:04.736Z,3.80
2018-09-09T22:20:33.114Z,4.07
2018-09-09T22:23:01.482Z,3.23
2018-09-09T22:25:30.000Z,3.57
2018-09-09T22:27:58.427Z,3.57
2018-09-09T22:30:26.934Z,3.40
2018-09-09T22:32:55.384Z,3.40
2018-09-09T22:35:23.742Z,3.47
2018-09-09T22:37:52.129Z,3.50
2018-09-09T22:40:20.543Z,3.40
2018-09-09T22:42:49.037Z,4.00
2018-09-09T22:45:17.448Z,3.57
2018-09-09T22:47:45.830Z,3.50
2018-09-09T22:50:14.215Z,3.77
2018-09-09T22:52:42.719Z,3.70
2018-09-09T22:55:11.291Z,4.03
2018-09-09T22:57:39.615Z,4.10
2018-09-09T23:00:08.276Z,3.77
2018-09-09T23:02:36.638Z,3.40
2018-09-09T23:05:05.019Z,3.63
2018-09-09T23:07:33.360Z,3.37
2018-09-09T23:10:01.763Z,3.30
2018-09-09T23:12:36.780Z,3.07
2018-09-09T23:16:29.738Z,3.00
2018-09-09T23:18:58.078Z,2.70
2018-09-09T23:21:26.431Z,2.90
2018-09-09T23:23:54.843Z,3.60
2018-09-09T23:26:23.205Z,2.93
2018-09-09T23:28:51.547Z,3.23
2018-09-09T23:31:19.965Z,3.17
2018-09-09T23:33:48.431Z,3.50
2018-09-09T23:36:16.879Z,2.97
2018-09-09T23:38:45.217Z,3.47
2018-09-09T23:41:13.552Z,3.10
2018-09-09T23:43:41.920Z,3.23
2018-09-09T23:46:11.215Z,3.37
2018-09-09T23:48:39.595Z,3.10
2018-09-09T23:51:07.958Z,3.20
2018-09-09T23:53:36.542Z,2.90
2018-09-09T23:56:04.936Z,2.77
2018-09-09T23:58:33.312Z,2.87
